ADDS METAR Data INFO
IDs: Format: Raw Decoded Include TAF

Data at: 0425 UTC 26 May 2018

KACT 260351Z 17007KT 10SM CLR 25/18 A2987 RMK AO2 SLP107 T02500183
KACT 260251Z 14006KT 10SM CLR 26/18 A2986 RMK AO2 WSHFT 0145 SLP103 T02610178 55011
KACT 260214Z 14010KT 10SM CLR 27/18 A2984 RMK AO2 WSHFT 0145 T02670178
KACT 260205Z 10010G17KT 10SM CLR 27/18 A2984 RMK AO2 WSHFT 0145 T02670178
KACT 260151Z 06023G32KT 10SM CLR 27/18 A2982 RMK AO2 PK WND 05032/0149 SLP090 T02720183
KACT 260051Z 11004KT 10SM CLR 27/18 A2987 RMK AO2 SLP108 T02720183
KACT 260006Z 14009KT 10SM CLR 28/17 A2985 RMK AO2 PRESFR T02830172
KACT 252351Z 06008KT 10SM FEW070 FEW090 28/18 A2989 RMK AO2 SLP115 T02830183 10344 20283 55003
KACT 252251Z 07016KT 10SM BKN055 30/18 A2989 RMK AO2 PK WND 08027/2236 SLP113 T03000183
KACT 252151Z VRB05KT 10SM FEW060 33/19 A2988 RMK AO2 SLP108 T03330189
KACT 252051Z VRB03KT 10SM FEW060 33/21 A2990 RMK AO2 SLP117 T03330206 57019
KACT 251951Z 15008KT 10SM FEW090 33/21 A2992 RMK AO2 SLP124 T03330206
KACT 251851Z 13007KT 10SM CLR 33/21 A2994 RMK AO2 SLP130 T03280211
KACT 251751Z 17009KT 10SM CLR 32/21 A2996 RMK AO2 SLP136 T03220206 10322 20228 58009
KACT 251651Z 17009KT 10SM CLR 31/21 A2997 RMK AO2 SLP141 T03110211
KACT 251551Z 17009KT 10SM CLR 29/22 A2998 RMK AO2 SLP144 T02940222
KACT 251451Z 17009KT 10SM CLR 28/22 A2998 RMK AO2 SLP145 T02780217 51006
KACT 251351Z 19007KT 10SM CLR 26/22 A2998 RMK AO2 SLP144 T02610222
KACT 251251Z 20006KT 10SM CLR 24/22 A2998 RMK AO2 SLP142 T02390217
KACT 251151Z 18007KT 10SM CLR 23/21 A2996 RMK AO2 SLP139 T02280211 10261 20222 56005
KACT 251051Z AUTO 20006KT 10SM CLR 22/21 A2997 RMK AO2 SLP141 T02220211
KACT 250951Z AUTO 19006KT 10SM CLR 22/21 A2997 RMK AO2 SLP142 T02220206
KACT 250851Z AUTO 19008KT 10SM CLR 23/21 A2998 RMK AO2 SLP144 T02330206 56009
KACT 250751Z AUTO 18010KT 10SM CLR 24/20 A2999 RMK AO2 SLP146 T02440200
KACT 250651Z AUTO 17011KT 10SM CLR 25/20 A3000 RMK AO2 SLP150 T02500200
KACT 250551Z AUTO 17012KT 10SM CLR 26/21 A3001 RMK AO2 SLP153 T02610206 10322 20256 403280200 50005
KACT 250451Z 15010KT 10SM CLR 27/21 A3001 RMK AO2 SLP155 T02670206
KACT 250351Z 12005KT 10SM CLR 26/20 A3000 RMK AO2 SLP152 T02560200
KACT 250251Z 12004KT 10SM CLR 26/20 A2999 RMK AO2 SLP149 T02610200 53008
KACT 250151Z 11003KT 10SM CLR 28/19 A2997 RMK AO2 SLP141 T02780194
KACT 250051Z 18005KT 10SM CLR 30/19 A2996 RMK AO2 SLP138 T03000189
KACT 242351Z 21004KT 10SM CLR 32/18 A2997 RMK AO2 SLP140 T03170183 10328 20294 56013
KACT 242251Z 22003KT 10SM SCT065 32/18 A2998 RMK AO2 SLP143 T03220183
KACT 242151Z VRB03KT 10SM CLR 32/18 A2999 RMK AO2 SLP146 T03220183
KACT 242051Z COR VRB04KT 10SM SCT038 32/18 A3001 RMK AO2 SLP153 T03170183 58025
KACT 241951Z 17006KT 10SM CLR 32/19 A3003 RMK AO2 SLP162 T03170189
KACT 241851Z COR VRB06KT SCT040 31/19 A3006 RMK AO2 SLP170 T03060189
KACT 241751Z 15006KT 10SM SCT032 29/20 A3008 RMK AO2 SLP178 T02940200 10294 20211 58005
KACT 241651Z 16008KT 10SM SCT032 28/21 A3009 RMK AO2 SLP183 T02830206 $